Time;durP1;ratioP1;P1;durP2;ratioP2;P2;SDS_P1;SDS_P2;PMS_P1;PMS_P2;Temp;Humidity;BMP_temperature;BMP_pressure;BME280_temperature;BME280_humidity;BME280_pressure;Samples;Min_cycle;Max_cycle;Signal;HPM_P1;HPM_P2
2023/07/26 04:06:17;;;;;;;2.43;2.23;;;13.30;99.90;;;;;;5165967;23;20493;-63
2023/07/26 04:08:43;;;;;;;3.17;2.87;;;13.30;99.90;;;;;;4990923;28;20461;-64
2023/07/26 04:11:10;;;;;;;2.93;2.73;;;13.30;99.90;;;;;;4989277;28;20179;-64
2023/07/26 04:13:36;;;;;;;2.43;2.20;;;13.30;99.90;;;;;;4973614;28;20214;-64
2023/07/26 04:16:12;;;;;;;2.23;2.00;;;13.30;99.90;;;;;;4974384;28;20427;-65
2023/07/26 04:18:37;;;;;;;3.27;2.80;;;13.30;99.90;;;;;;4974318;28;20261;-64
2023/07/26 04:21:03;;;;;;;2.60;2.40;;;13.30;99.90;;;;;;4974295;28;20418;-64
2023/07/26 04:23:28;;;;;;;2.60;2.40;;;13.40;99.90;;;;;;4979352;28;20265;-64
2023/07/26 04:25:54;;;;;;;3.53;2.53;;;13.40;99.90;;;;;;4993726;28;20194;-64
2023/07/26 04:28:19;;;;;;;3.23;3.00;;;13.40;99.90;;;;;;4994941;28;20171;-64
2023/07/26 04:30:47;;;;;;;2.37;2.27;;;13.40;99.90;;;;;;4997122;28;20305;-64
2023/07/26 04:33:12;;;;;;;3.87;2.87;;;13.50;99.90;;;;;;4997234;28;20183;-64
2023/07/26 04:35:38;;;;;;;3.03;2.17;;;13.50;99.90;;;;;;4995468;28;20607;-64
2023/07/26 04:38:04;;;;;;;4.30;2.90;;;13.60;99.90;;;;;;4997295;28;20373;-63
2023/07/26 04:40:29;;;;;;;4.50;3.03;;;13.70;99.90;;;;;;4997390;28;20265;-63
2023/07/26 04:42:55;;;;;;;3.40;3.10;;;13.90;99.90;;;;;;4997163;28;20179;-63
2023/07/26 04:45:20;;;;;;;4.33;3.40;;;14.00;99.90;;;;;;4996606;28;20236;-65
2023/07/26 04:47:46;;;;;;;3.60;3.30;;;14.10;99.90;;;;;;4996869;28;20525;-64
2023/07/26 04:50:11;;;;;;;5.33;3.33;;;14.20;99.90;;;;;;4996565;28;20234;-66
2023/07/26 04:52:37;;;;;;;6.43;4.13;;;14.30;99.90;;;;;;4996671;28;20170;-65
2023/07/26 04:55:07;;;;;;;6.67;4.20;;;14.40;99.90;;;;;;4996334;28;20202;-65
2023/07/26 04:57:33;;;;;;;3.97;3.53;;;14.40;99.90;;;;;;4996824;28;20797;-65
2023/07/26 04:59:59;;;;;;;3.83;2.90;;;14.50;99.90;;;;;;4991889;28;20430;-65
2023/07/26 05:02:24;;;;;;;4.27;3.87;;;14.50;99.90;;;;;;4976830;28;20171;-64
2023/07/26 05:04:50;;;;;;;2.80;2.60;;;14.60;99.90;;;;;;4976430;28;20259;-64
2023/07/26 05:07:15;;;;;;;5.27;4.07;;;14.70;99.90;;;;;;4976927;28;20298;-65
2023/07/26 05:09:41;;;;;;;3.23;2.93;;;14.80;99.90;;;;;;4977193;28;20168;-64
2023/07/26 05:12:07;;;;;;;3.87;3.13;;;14.90;99.90;;;;;;4959773;28;20242;-64
2023/07/26 05:14:33;;;;;;;4.00;3.70;;;15.00;99.90;;;;;;4976543;28;20191;-64
2023/07/26 05:16:58;;;;;;;3.23;2.93;;;15.10;99.90;;;;;;4976943;28;20462;-65
2023/07/26 05:19:24;;;;;;;3.97;3.30;;;15.20;99.90;;;;;;4962535;28;20654;-63
2023/07/26 05:21:49;;;;;;;3.40;3.20;;;15.20;99.90;;;;;;4966623;28;20209;-64
2023/07/26 05:24:15;;;;;;;2.60;2.40;;;15.20;99.90;;;;;;4961343;28;20173;-63
2023/07/26 05:26:40;;;;;;;3.57;3.30;;;15.20;99.90;;;;;;4957388;28;20624;-65
2023/07/26 05:29:06;;;;;;;3.53;3.23;;;15.20;99.90;;;;;;4959490;28;20181;-63
2023/07/26 05:31:32;;;;;;;3.33;3.10;;;15.20;99.90;;;;;;4976392;28;20207;-64
2023/07/26 05:33:57;;;;;;;3.23;2.53;;;15.20;99.90;;;;;;4968160;28;20631;-64
2023/07/26 05:36:23;;;;;;;3.40;3.10;;;15.10;99.90;;;;;;4960797;28;20260;-63
2023/07/26 05:38:48;;;;;;;3.70;2.90;;;15.10;99.90;;;;;;4962017;28;20204;-63
2023/07/26 05:41:14;;;;;;;3.90;3.50;;;15.10;99.90;;;;;;4971623;28;20185;-64
2023/07/26 05:43:39;;;;;;;3.50;3.20;;;15.00;99.90;;;;;;4976037;28;20169;-64
2023/07/26 05:46:07;;;;;;;3.30;3.00;;;15.00;99.90;;;;;;4961610;28;20197;-63
2023/07/26 05:48:33;;;;;;;3.53;3.23;;;15.00;99.90;;;;;;4957731;28;20184;-64
2023/07/26 05:50:58;;;;;;;3.30;2.97;;;15.00;99.90;;;;;;4957026;28;20424;-62
2023/07/26 05:53:24;;;;;;;3.30;3.10;;;15.10;99.90;;;;;;4956832;29;20695;-64
2023/07/26 05:55:49;;;;;;;3.30;3.00;;;15.10;99.90;;;;;;4956401;28;20195;-64
2023/07/26 05:58:15;;;;;;;3.33;3.00;;;15.10;99.90;;;;;;4956602;29;20236;-64
2023/07/26 06:00:40;;;;;;;4.70;3.03;;;15.10;99.90;;;;;;4957003;29;20173;-64
2023/07/26 06:03:06;;;;;;;5.43;3.47;;;15.10;99.90;;;;;;4956692;28;20173;-64
2023/07/26 06:05:32;;;;;;;11.03;7.23;;;15.20;99.90;;;;;;4955829;28;20670;-65
2023/07/26 06:07:57;;;;;;;4.90;4.47;;;15.20;99.90;;;;;;4956681;29;20530;-64
2023/07/26 06:10:23;;;;;;;3.70;2.97;;;15.30;99.90;;;;;;4956688;28;20531;-64
2023/07/26 06:12:49;;;;;;;2.87;2.67;;;15.40;99.90;;;;;;4956682;29;20286;-64
2023/07/26 06:15:14;;;;;;;3.30;3.00;;;15.50;99.90;;;;;;4956200;29;20660;-63
2023/07/26 06:17:40;;;;;;;3.53;2.90;;;15.70;99.90;;;;;;4956579;29;20202;-64
2023/07/26 06:20:06;;;;;;;4.03;3.73;;;15.90;99.90;;;;;;4956428;28;20531;-64
2023/07/26 06:22:32;;;;;;;4.00;2.57;;;16.00;99.90;;;;;;4956537;28;20299;-65
2023/07/26 06:24:57;;;;;;;2.47;2.27;;;16.20;99.90;;;;;;4956020;28;20879;-65
2023/07/26 06:27:28;;;;;;;3.23;2.93;;;16.30;99.90;;;;;;4956433;28;20198;-64
2023/07/26 06:29:53;;;;;;;4.70;4.30;;;16.50;99.90;;;;;;4956217;28;20182;-65
2023/07/26 06:32:19;;;;;;;2.07;1.97;;;16.70;99.90;;;;;;4956367;29;20458;-65
2023/07/26 06:34:44;;;;;;;2.17;2.07;;;16.90;99.90;;;;;;4956025;29;20204;-64
2023/07/26 06:37:10;;;;;;;2.50;2.30;;;17.10;99.90;;;;;;4956216;28;20207;-65
2023/07/26 06:39:36;;;;;;;2.93;2.73;;;17.40;99.90;;;;;;4938929;29;20169;-65
2023/07/26 06:42:01;;;;;;;3.70;3.20;;;17.70;99.90;;;;;;4938919;29;20535;-64
2023/07/26 06:44:27;;;;;;;2.83;1.83;;;17.90;99.90;;;;;;4955677;28;20185;-65
2023/07/26 06:46:53;;;;;;;2.10;1.90;;;18.20;99.90;;;;;;4938862;28;20231;-65
2023/07/26 06:49:19;;;;;;;2.47;2.37;;;18.20;99.90;;;;;;4938636;29;20442;-66
2023/07/26 06:51:44;;;;;;;3.70;3.40;;;18.20;99.90;;;;;;4955581;28;20173;-65
2023/07/26 06:54:10;;;;;;;2.50;1.83;;;18.30;99.90;;;;;;4955340;28;20179;-65
2023/07/26 06:56:36;;;;;;;2.27;2.17;;;18.30;99.90;;;;;;4955764;29;20544;-65
2023/07/26 06:59:08;;;;;;;1.70;1.60;;;18.20;99.90;;;;;;4955875;28;20168;-65
2023/07/26 07:01:34;;;;;;;2.20;2.00;;;18.20;99.90;;;;;;4939458;28;20460;-65
2023/07/26 07:03:59;;;;;;;2.67;2.47;;;18.20;99.90;;;;;;4938109;29;20454;-65
2023/07/26 07:06:25;;;;;;;2.30;2.20;;;18.30;99.90;;;;;;4955552;28;20454;-65
2023/07/26 07:08:50;;;;;;;1.80;1.53;;;18.40;99.90;;;;;;4961450;28;20192;-65
2023/07/26 07:11:16;;;;;;;3.83;2.20;;;18.40;99.90;;;;;;4974955;28;20223;-63
2023/07/26 07:13:42;;;;;;;1.30;1.30;;;18.50;99.90;;;;;;4974665;28;20258;-64
2023/07/26 07:16:07;;;;;;;1.73;1.63;;;18.50;99.90;;;;;;4974691;28;20204;-63
2023/07/26 07:18:33;;;;;;;1.77;1.67;;;18.50;99.90;;;;;;4974941;28;20208;-63
2023/07/26 07:21:00;;;;;;;1.27;1.27;;;18.40;99.90;;;;;;4974944;28;20328;-63
2023/07/26 07:23:28;;;;;;;1.73;1.63;;;18.30;99.90;;;;;;4974461;28;20173;-64
2023/07/26 07:25:53;;;;;;;1.60;1.50;;;18.00;99.90;;;;;;4974698;28;20437;-64
2023/07/26 07:28:19;;;;;;;2.30;2.10;;;17.70;99.90;;;;;;4974768;28;20415;-64
2023/07/26 07:30:45;;;;;;;1.90;1.70;;;17.50;99.90;;;;;;4974829;28;20578;-63
2023/07/26 07:33:11;;;;;;;2.07;1.97;;;17.30;99.90;;;;;;4974847;28;20524;-63
2023/07/26 07:35:36;;;;;;;2.60;2.40;;;17.20;99.90;;;;;;4974271;28;20431;-63
2023/07/26 07:38:02;;;;;;;2.60;2.47;;;17.10;99.90;;;;;;4974577;28;20211;-63
2023/07/26 07:40:27;;;;;;;3.40;3.20;;;17.00;99.90;;;;;;4974675;28;20254;-63
2023/07/26 07:42:53;;;;;;;1.93;1.83;;;16.90;99.90;;;;;;4957406;28;20231;-64
2023/07/26 07:45:18;;;;;;;5.23;2.30;;;16.80;99.90;;;;;;4974041;28;20203;-63
2023/07/26 07:47:44;;;;;;;7.90;2.97;;;16.70;99.90;;;;;;4974666;28;20197;-63
2023/07/26 07:50:10;;;;;;;3.00;2.80;;;16.60;99.90;;;;;;4974628;28;20532;-63
2023/07/26 07:52:35;;;;;;;2.90;2.70;;;16.60;99.90;;;;;;4974587;28;20178;-63
2023/07/26 07:55:01;;;;;;;2.07;1.87;;;16.50;99.90;;;;;;4974162;28;20201;-63
2023/07/26 07:57:27;;;;;;;3.17;2.37;;;16.50;99.90;;;;;;4974587;28;20207;-63
2023/07/26 07:59:53;;;;;;;2.90;2.70;;;16.30;99.90;;;;;;4974491;28;20239;-63
2023/07/26 08:02:19;;;;;;;2.80;2.60;;;16.30;99.90;;;;;;4974648;28;20496;-63
2023/07/26 08:04:44;;;;;;;3.10;2.80;;;16.30;99.90;;;;;;4977410;28;20199;-62
2023/07/26 08:07:10;;;;;;;4.37;3.23;;;16.30;99.90;;;;;;4978288;28;20543;-64
2023/07/26 08:09:35;;;;;;;2.13;2.00;;;16.40;99.90;;;;;;4978398;28;20180;-64
2023/07/26 08:12:02;;;;;;;2.83;2.00;;;16.50;99.90;;;;;;4978263;28;20178;-64
2023/07/26 08:14:28;;;;;;;2.53;2.33;;;16.60;99.90;;;;;;4977647;28;20210;-63
2023/07/26 08:16:53;;;;;;;2.67;2.47;;;16.60;99.90;;;;;;4978051;28;20467;-64
2023/07/26 08:19:19;;;;;;;3.00;2.80;;;16.60;99.90;;;;;;4960504;28;20179;-64
2023/07/26 08:21:45;;;;;;;7.87;2.00;;;16.70;99.90;;;;;;4960488;28;20173;-64
2023/07/26 08:24:11;;;;;;;2.67;2.50;;;16.80;99.90;;;;;;4960072;28;20181;-64
2023/07/26 08:26:37;;;;;;;2.30;2.10;;;16.80;99.90;;;;;;4977769;28;20179;-63
2023/07/26 08:29:03;;;;;;;5.10;2.97;;;16.90;99.90;;;;;;4977608;28;20187;-64
2023/07/26 08:31:29;;;;;;;3.00;2.37;;;16.90;99.90;;;;;;4977865;28;20414;-64
2023/07/26 08:33:54;;;;;;;2.60;2.40;;;16.80;99.90;;;;;;4977480;28;20658;-64
2023/07/26 08:36:20;;;;;;;2.90;2.60;;;16.80;99.90;;;;;;4977861;28;20682;-63
2023/07/26 08:38:46;;;;;;;2.87;2.67;;;16.80;99.90;;;;;;4977744;28;20562;-64
2023/07/26 08:41:12;;;;;;;3.27;3.00;;;16.70;99.90;;;;;;4977686;28;20543;-64
2023/07/26 08:43:38;;;;;;;5.03;2.47;;;16.80;99.90;;;;;;4977212;28;20406;-64
2023/07/26 08:46:06;;;;;;;3.60;2.13;;;16.80;99.90;;;;;;4960025;28;20201;-63
2023/07/26 08:48:32;;;;;;;2.03;1.90;;;16.80;99.90;;;;;;4977754;28;20429;-63
2023/07/26 08:51:00;;;;;;;1.70;1.60;;;16.70;99.90;;;;;;4977465;28;20410;-63
2023/07/26 08:53:27;;;;;;;1.30;1.20;;;16.70;99.90;;;;;;4977269;28;20834;-62
2023/07/26 08:55:53;;;;;;;1.43;1.00;;;16.70;99.90;;;;;;4977266;28;20449;-63
2023/07/26 08:58:19;;;;;;;1.67;1.57;;;16.60;99.90;;;;;;4977306;28;20449;-64
2023/07/26 09:00:45;;;;;;;1.80;1.70;;;16.60;99.90;;;;;;4977203;28;20175;-64
2023/07/26 09:03:11;;;;;;;1.63;1.53;;;16.60;99.90;;;;;;4977257;28;20656;-63
2023/07/26 09:05:37;;;;;;;4.10;3.70;;;16.60;99.90;;;;;;4976525;28;20421;-64
2023/07/26 09:08:02;;;;;;;3.60;3.30;;;16.70;99.90;;;;;;4977199;28;20426;-70
2023/07/26 09:10:29;;;;;;;1.60;1.50;;;16.80;99.90;;;;;;4977407;28;20250;-72
2023/07/26 09:13:12;;;;;;;3.60;2.03;;;16.90;99.90;;;;;;4977059;28;20527;-72
2023/07/26 09:15:40;;;;;;;4.67;1.67;;;17.20;99.90;;;;;;4976456;28;20402;-71
2023/07/26 09:18:07;;;;;;;1.33;1.23;;;17.60;99.90;;;;;;4977000;28;20984;-69
2023/07/26 09:20:33;;;;;;;0.87;0.87;;;18.10;99.90;;;;;;4976932;28;20379;-71
2023/07/26 09:23:05;;;;;;;0.83;0.83;;;18.60;99.90;;;;;;4976999;28;20370;-71
2023/07/26 09:25:42;;;;;;;1.10;1.00;;;18.90;99.90;;;;;;4976423;28;20421;-70
2023/07/26 09:28:13;;;;;;;0.90;0.90;;;19.20;99.90;;;;;;4976686;28;20434;-68
2023/07/26 09:30:45;;;;;;;1.00;1.00;;;19.30;99.90;;;;;;4976681;28;20407;-71
2023/07/26 09:33:12;;;;;;;0.63;0.63;;;19.40;99.90;;;;;;4976671;28;20412;-69
2023/07/26 09:35:46;;;;;;;0.80;0.80;;;19.40;99.90;;;;;;4976174;28;20444;-70
2023/07/26 09:38:17;;;;;;;0.60;0.60;;;19.40;99.90;;;;;;4976433;28;20938;-69
2023/07/26 09:40:43;;;;;;;0.60;0.60;;;19.30;99.90;;;;;;4976635;28;20429;-69
2023/07/26 09:43:08;;;;;;;0.70;0.70;;;19.30;99.90;;;;;;4976531;28;20399;-67
2023/07/26 09:45:36;;;;;;;0.50;0.50;;;19.30;99.90;;;;;;4976371;28;20399;-68
2023/07/26 09:48:10;;;;;;;0.50;0.50;;;19.20;99.90;;;;;;4976583;28;20599;-66
2023/07/26 09:50:36;;;;;;;0.60;0.60;;;19.10;99.90;;;;;;4976242;28;20421;-71
2023/07/26 09:53:03;;;;;;;0.50;0.50;;;18.90;99.90;;;;;;4976538;28;20864;-69
2023/07/26 09:55:29;;;;;;;0.80;0.80;;;18.80;99.90;;;;;;4975465;28;20203;-70
2023/07/26 09:57:56;;;;;;;0.57;0.57;;;18.80;99.90;;;;;;4975670;28;20440;-69
2023/07/26 10:00:24;;;;;;;0.60;0.60;;;18.80;99.90;;;;;;4958211;28;20390;-67
2023/07/26 10:03:03;;;;;;;0.70;0.70;;;18.90;99.90;;;;;;4975501;28;20416;-67
2023/07/26 10:05:44;;;;;;;2.80;2.07;;;18.70;99.90;;;;;;4973583;28;20434;-67
2023/07/26 10:08:11;;;;;;;1.00;1.00;;;18.60;99.90;;;;;;4956880;28;20419;-68
2023/07/26 10:10:37;;;;;;;0.97;0.97;;;18.40;99.90;;;;;;4957850;28;20415;-68
2023/07/26 10:13:04;;;;;;;0.70;0.70;;;18.20;99.90;;;;;;4975467;28;20400;-68
2023/07/26 10:15:31;;;;;;;0.60;0.60;;;17.90;99.90;;;;;;4974910;28;20611;-69
2023/07/26 10:17:57;;;;;;;1.17;0.90;;;17.70;99.90;;;;;;4975178;28;20433;-68
2023/07/26 10:20:23;;;;;;;0.60;0.60;;;17.50;99.90;;;;;;4975295;28;20495;-70
2023/07/26 10:22:51;;;;;;;3.80;1.03;;;17.50;99.90;;;;;;4974970;28;20464;-69
2023/07/26 10:25:17;;;;;;;0.60;0.60;;;17.60;99.90;;;;;;4974477;28;20402;-66
2023/07/26 10:27:43;;;;;;;1.00;1.00;;;17.60;99.90;;;;;;4974828;28;20411;-68
2023/07/26 10:30:10;;;;;;;1.00;1.00;;;17.70;99.90;;;;;;4975340;28;20856;-71
2023/07/26 10:32:45;;;;;;;0.90;0.90;;;17.80;99.90;;;;;;4975612;28;20404;-70
2023/07/26 10:35:10;;;;;;;0.70;0.70;;;17.90;99.90;;;;;;4974524;28;20468;-68
2023/07/26 10:37:36;;;;;;;0.60;0.60;;;18.10;99.90;;;;;;4975124;28;20448;-69
2023/07/26 10:40:29;;;;;;;0.90;0.80;;;18.30;99.90;;;;;;4975553;28;20252;-69
2023/07/26 10:42:55;;;;;;;1.80;0.90;;;18.60;99.90;;;;;;4975465;28;20404;-70
2023/07/26 10:45:43;;;;;;;0.97;0.97;;;18.90;99.90;;;;;;4974953;28;20458;-68
2023/07/26 10:48:35;;;;;;;0.80;0.70;;;19.20;99.90;;;;;;4975363;28;20202;-69
2023/07/26 10:51:40;;;;;;;0.67;0.67;;;19.40;99.90;;;;;;4975905;28;20390;-70
2023/07/26 10:54:06;;;;;;;1.17;1.07;;;19.50;99.90;;;;;;4957056;28;20431;-69
2023/07/26 10:56:32;;;;;;;0.90;0.90;;;20.00;99.90;;;;;;4975134;28;20427;-70
2023/07/26 10:59:04;;;;;;;0.80;0.80;;;20.50;99.90;;;;;;4974888;28;20215;-69
2023/07/26 11:01:32;;;;;;;0.77;0.77;;;21.10;99.90;;;;;;4956946;28;20395;-71
2023/07/26 11:03:59;;;;;;;0.90;0.87;;;21.80;99.90;;;;;;4974039;28;20869;-71
2023/07/26 11:06:57;;;;;;;0.90;0.90;;;22.30;99.90;;;;;;4974238;28;20415;-68
2023/07/26 11:09:33;;;;;;;1.10;1.10;;;22.70;98.00;;;;;;4952574;28;20896;-71
2023/07/26 11:12:01;;;;;;;0.90;0.90;;;22.80;97.60;;;;;;4975153;28;20483;-70
2023/07/26 11:14:30;;;;;;;2.97;0.93;;;23.00;97.00;;;;;;4974590;28;20761;-72
2023/07/26 11:16:58;;;;;;;1.33;1.23;;;23.00;96.50;;;;;;4974813;28;20467;-69
2023/07/26 11:19:24;;;;;;;1.60;1.50;;;22.80;96.20;;;;;;4974935;28;20386;-69
2023/07/26 11:21:49;;;;;;;2.10;1.37;;;22.60;96.40;;;;;;4974793;28;20382;-70
2023/07/26 11:24:15;;;;;;;2.20;0.80;;;22.40;97.00;;;;;;4974813;28;20172;-73
2023/07/26 11:26:46;;;;;;;0.73;0.73;;;22.40;98.10;;;;;;4974924;28;20183;-70
2023/07/26 11:29:12;;;;;;;1.30;1.20;;;22.40;97.80;;;;;;4974849;28;20410;-69
2023/07/26 11:31:38;;;;;;;1.67;1.57;;;22.60;97.20;;;;;;4974873;28;20796;-69
2023/07/26 11:34:17;;;;;;;1.30;1.20;;;22.70;97.00;;;;;;4974433;28;20414;-70
2023/07/26 11:36:43;;;;;;;1.10;1.10;;;22.70;97.00;;;;;;4975095;28;20542;-70
2023/07/26 11:39:19;;;;;;;1.23;1.13;;;22.70;95.60;;;;;;4973887;28;20366;-67
2023/07/26 11:41:45;;;;;;;1.80;1.70;;;22.60;95.00;;;;;;4974716;28;20397;-65
2023/07/26 11:44:12;;;;;;;2.77;2.50;;;22.60;95.50;;;;;;4956663;28;20900;-67
2023/07/26 11:46:42;;;;;;;1.27;1.23;;;22.70;95.30;;;;;;4974517;28;20228;-65
2023/07/26 11:49:10;;;;;;;0.83;0.83;;;22.70;96.10;;;;;;4974530;28;20736;-67
2023/07/26 11:51:36;;;;;;;0.93;0.93;;;22.70;96.10;;;;;;4957046;28;20399;-65
2023/07/26 11:54:02;;;;;;;2.00;1.80;;;22.80;94.80;;;;;;4974006;28;20426;-64
2023/07/26 11:56:30;;;;;;;1.33;1.23;;;23.00;93.80;;;;;;4974327;28;20290;-62
2023/07/26 11:58:58;;;;;;;1.83;1.17;;;23.10;92.90;;;;;;4974386;28;20196;-66
2023/07/26 12:01:24;;;;;;;0.80;0.80;;;23.10;93.30;;;;;;4974437;28;20469;-65
2023/07/26 12:03:51;;;;;;;0.97;0.97;;;23.20;93.60;;;;;;4974340;28;20407;-67
2023/07/26 12:06:19;;;;;;;1.30;1.20;;;23.20;93.10;;;;;;4973995;28;20493;-66
2023/07/26 12:08:47;;;;;;;0.93;0.87;;;23.10;93.30;;;;;;4974181;28;20738;-67
2023/07/26 12:11:17;;;;;;;1.20;1.10;;;23.00;92.30;;;;;;4956968;28;20420;-65
2023/07/26 12:13:43;;;;;;;1.27;1.20;;;22.90;92.80;;;;;;4956388;28;20443;-66
2023/07/26 12:16:09;;;;;;;1.73;1.40;;;23.00;92.70;;;;;;4974326;28;20467;-67
2023/07/26 12:18:35;;;;;;;1.10;1.10;;;22.90;92.80;;;;;;4974800;28;20482;-66
2023/07/26 12:21:07;;;;;;;1.47;1.37;;;22.90;92.40;;;;;;4974230;28;20164;-68
2023/07/26 12:23:59;;;;;;;1.03;1.00;;;23.00;92.40;;;;;;4973979;28;20164;-69
2023/07/26 12:26:35;;;;;;;1.60;1.50;;;23.20;92.20;;;;;;4956685;28;20518;-64
2023/07/26 12:29:05;;;;;;;0.90;0.90;;;23.10;92.00;;;;;;4974330;28;20411;-67
2023/07/26 12:31:33;;;;;;;0.93;0.93;;;23.00;91.90;;;;;;4974230;28;20856;-67
2023/07/26 12:34:04;;;;;;;0.90;0.90;;;22.80;92.60;;;;;;4974085;28;20408;-67
2023/07/26 12:36:47;;;;;;;2.53;1.10;;;22.70;92.50;;;;;;4974456;28;20388;-64
2023/07/26 12:39:14;;;;;;;1.57;1.47;;;22.60;92.60;;;;;;4957214;28;20908;-67
2023/07/26 12:41:41;;;;;;;1.20;1.10;;;22.40;92.50;;;;;;4974081;28;20403;-65
2023/07/26 12:44:07;;;;;;;0.80;0.80;;;22.10;93.40;;;;;;4956315;28;20394;-67
2023/07/26 12:46:33;;;;;;;1.30;1.03;;;21.90;92.80;;;;;;4974091;28;20433;-65
2023/07/26 12:48:59;;;;;;;0.97;0.97;;;21.80;92.00;;;;;;4974841;28;20175;-67
2023/07/26 12:51:26;;;;;;;2.27;1.70;;;21.70;92.70;;;;;;4977605;28;20407;-65
2023/07/26 12:53:53;;;;;;;2.00;1.03;;;21.80;92.50;;;;;;4977190;28;20215;-66
2023/07/26 12:56:19;;;;;;;1.10;1.10;;;21.90;92.00;;;;;;4977147;28;20405;-66
2023/07/26 12:58:45;;;;;;;0.90;0.90;;;21.90;91.20;;;;;;4977236;28;20949;-66
2023/07/26 13:01:10;;;;;;;1.33;1.23;;;22.00;91.50;;;;;;4977350;28;20466;-66
2023/07/26 13:03:36;;;;;;;1.40;1.30;;;22.00;91.40;;;;;;4977155;28;20222;-67
2023/07/26 13:06:04;;;;;;;1.40;1.30;;;21.90;91.70;;;;;;4976982;28;20625;-67
2023/07/26 13:08:31;;;;;;;1.27;1.17;;;21.90;91.70;;;;;;4977327;28;20169;-67
2023/07/26 13:10:57;;;;;;;1.20;1.20;;;21.80;92.40;;;;;;4976996;28;20806;-68
2023/07/26 13:13:22;;;;;;;1.93;1.70;;;21.60;93.40;;;;;;4976927;28;20378;-67
2023/07/26 13:15:48;;;;;;;2.43;1.33;;;21.50;93.90;;;;;;4976831;28;20424;-68
2023/07/26 13:18:14;;;;;;;1.93;1.83;;;21.50;93.70;;;;;;4976937;28;20202;-66
2023/07/26 13:20:40;;;;;;;1.00;1.00;;;21.50;94.60;;;;;;4959602;28;20202;-67
2023/07/26 13:23:06;;;;;;;1.73;1.63;;;21.40;95.00;;;;;;4977030;28;20778;-66
2023/07/26 13:25:32;;;;;;;2.10;1.90;;;21.30;94.60;;;;;;4976445;28;20659;-68
2023/07/26 13:27:58;;;;;;;2.00;1.80;;;21.20;94.80;;;;;;4959409;28;20425;-66
2023/07/26 13:30:23;;;;;;;1.30;1.20;;;21.20;95.50;;;;;;4959475;28;20415;-67
2023/07/26 13:32:49;;;;;;;2.97;1.30;;;21.10;96.00;;;;;;4976742;28;20311;-66
2023/07/26 13:35:14;;;;;;;1.30;1.30;;;21.00;96.00;;;;;;4975987;28;20192;-67
2023/07/26 13:37:41;;;;;;;1.10;1.00;;;20.90;96.10;;;;;;4958901;28;20227;-66
2023/07/26 13:40:07;;;;;;;1.43;1.00;;;20.70;95.70;;;;;;4976553;28;20250;-66
2023/07/26 13:42:33;;;;;;;1.30;1.30;;;20.70;96.50;;;;;;4976603;28;20431;-67
2023/07/26 13:45:00;;;;;;;1.00;1.00;;;20.70;96.40;;;;;;4976339;28;20422;-67
2023/07/26 13:47:26;;;;;;;1.50;1.47;;;20.60;96.20;;;;;;4959142;28;20654;-67
2023/07/26 13:49:51;;;;;;;1.30;1.20;;;20.50;96.30;;;;;;4959164;28;20423;-66
2023/07/26 13:52:17;;;;;;;1.10;1.10;;;20.50;96.90;;;;;;4976432;28;20231;-67
2023/07/26 13:54:43;;;;;;;1.10;1.10;;;20.50;97.40;;;;;;4976137;28;20284;-66
2023/07/26 13:57:08;;;;;;;1.40;1.30;;;20.60;97.60;;;;;;4976384;28;20671;-68
2023/07/26 13:59:37;;;;;;;1.10;1.10;;;20.80;97.40;;;;;;4976410;28;20169;-66
2023/07/26 14:02:06;;;;;;;1.53;1.40;;;21.10;96.80;;;;;;4975516;28;20168;-68
2023/07/26 14:04:32;;;;;;;1.40;1.30;;;21.30;95.70;;;;;;4975897;28;20846;-67
2023/07/26 14:06:58;;;;;;;1.47;1.43;;;21.50;95.00;;;;;;4960543;28;20433;-67
2023/07/26 14:09:25;;;;;;;1.30;1.20;;;21.70;94.40;;;;;;4978296;28;20885;-66
2023/07/26 14:11:50;;;;;;;1.57;1.30;;;21.70;93.30;;;;;;4980621;28;20204;-69
2023/07/26 14:14:17;;;;;;;1.20;1.10;;;21.80;94.20;;;;;;4980407;28;20501;-67
2023/07/26 14:16:43;;;;;;;5.40;1.30;;;21.90;93.60;;;;;;4979340;28;20247;-64
2023/07/26 14:19:09;;;;;;;1.00;1.00;;;22.00;92.60;;;;;;4978662;28;20429;-67
2023/07/26 14:21:35;;;;;;;1.00;0.97;;;22.00;92.10;;;;;;4978972;28;20379;-67
2023/07/26 14:24:01;;;;;;;1.00;1.00;;;22.10;92.00;;;;;;4976296;28;20946;-66
2023/07/26 14:26:26;;;;;;;1.63;1.30;;;22.10;91.60;;;;;;4976193;28;20279;-65
2023/07/26 14:28:52;;;;;;;0.90;0.90;;;22.10;92.00;;;;;;4958630;28;20214;-66
2023/07/26 14:31:17;;;;;;;1.07;1.03;;;22.20;92.20;;;;;;4975741;28;20630;-64
2023/07/26 14:33:43;;;;;;;1.23;1.23;;;22.20;92.00;;;;;;4942387;28;20234;-68
2023/07/26 14:36:09;;;;;;;1.10;1.00;;;22.30;91.40;;;;;;4975704;28;20246;-68
2023/07/26 14:38:34;;;;;;;3.10;1.20;;;22.30;91.20;;;;;;4976053;28;20204;-65
2023/07/26 14:41:00;;;;;;;1.63;1.53;;;22.10;90.60;;;;;;4958241;28;20263;-66
2023/07/26 14:43:26;;;;;;;1.37;1.13;;;22.00;90.50;;;;;;4975518;28;20173;-67
2023/07/26 14:45:52;;;;;;;0.70;0.70;;;22.00;90.60;;;;;;4975312;28;20428;-67
2023/07/26 14:48:17;;;;;;;0.87;0.87;;;21.90;91.70;;;;;;4958210;28;20197;-67
2023/07/26 14:50:43;;;;;;;1.20;0.90;;;21.80;91.80;;;;;;4976210;28;20169;-67
2023/07/26 14:53:09;;;;;;;1.23;1.23;;;21.80;91.50;;;;;;4958637;28;20249;-65
2023/07/26 14:55:34;;;;;;;2.67;1.00;;;21.90;91.40;;;;;;4974942;28;20660;-67
2023/07/26 14:58:00;;;;;;;1.70;1.17;;;21.90;91.60;;;;;;4975646;28;20222;-66
2023/07/26 15:00:26;;;;;;;1.13;1.03;;;22.00;91.40;;;;;;4975515;28;20168;-67
2023/07/26 15:02:51;;;;;;;1.80;1.70;;;22.10;92.10;;;;;;4975363;28;20742;-68
2023/07/26 15:05:17;;;;;;;1.17;1.17;;;22.30;91.00;;;;;;4957449;28;20551;-68
2023/07/26 15:07:43;;;;;;;1.60;1.00;;;22.30;91.00;;;;;;4974869;28;20240;-68
2023/07/26 15:10:09;;;;;;;2.10;2.00;;;22.20;89.90;;;;;;4957546;28;20257;-66
2023/07/26 15:12:34;;;;;;;1.10;1.10;;;21.90;90.40;;;;;;4957878;28;20179;-68
2023/07/26 15:15:00;;;;;;;1.40;1.30;;;21.80;90.60;;;;;;4957074;28;20202;-67
2023/07/26 15:17:25;;;;;;;1.40;1.13;;;21.90;90.70;;;;;;4974697;28;20237;-68
2023/07/26 15:19:51;;;;;;;0.90;0.83;;;21.90;91.20;;;;;;4974828;28;20171;-68
2023/07/26 15:22:20;;;;;;;1.70;1.60;;;21.90;90.80;;;;;;4974951;28;20172;-68
2023/07/26 15:24:45;;;;;;;2.13;1.90;;;21.90;90.50;;;;;;4974309;28;20250;-67
2023/07/26 15:27:11;;;;;;;1.83;1.73;;;21.80;91.20;;;;;;4957583;28;20880;-68
2023/07/26 15:29:37;;;;;;;2.10;1.53;;;21.60;91.60;;;;;;4974754;28;20168;-65
2023/07/26 15:32:06;;;;;;;1.57;1.30;;;21.50;91.50;;;;;;4974755;28;20204;-67
2023/07/26 15:34:31;;;;;;;1.30;1.20;;;21.40;91.30;;;;;;4956873;28;20668;-66
2023/07/26 15:36:57;;;;;;;0.90;0.90;;;21.30;91.50;;;;;;4974345;28;20446;-67
2023/07/26 15:39:22;;;;;;;0.90;0.90;;;21.00;91.90;;;;;;4974703;28;20179;-64
2023/07/26 15:41:48;;;;;;;1.63;1.53;;;20.70;93.10;;;;;;4974691;28;20169;-66
2023/07/26 15:44:14;;;;;;;1.30;1.20;;;20.50;93.40;;;;;;4974338;28;20169;-66
2023/07/26 15:46:39;;;;;;;1.07;1.00;;;20.30;94.00;;;;;;4974083;28;20208;-67
2023/07/26 15:49:05;;;;;;;1.20;1.20;;;20.10;94.20;;;;;;4974541;28;20168;-69
2023/07/26 15:51:31;;;;;;;0.87;0.87;;;20.00;94.50;;;;;;4974435;28;20183;-70
2023/07/26 15:53:57;;;;;;;0.90;0.90;;;19.90;94.00;;;;;;4974162;28;20582;-73
2023/07/26 15:56:23;;;;;;;0.60;0.60;;;19.70;93.40;;;;;;4973992;28;20195;-69
2023/07/26 15:58:51;;;;;;;1.23;1.20;;;19.60;93.50;;;;;;4956775;28;20459;-65
2023/07/26 16:01:19;;;;;;;0.90;0.90;;;19.60;93.50;;;;;;4974481;28;20208;-67
2023/07/26 16:03:45;;;;;;;0.90;0.90;;;19.60;93.30;;;;;;4973622;28;20487;-67
2023/07/26 16:06:11;;;;;;;0.77;0.67;;;19.60;93.70;;;;;;4973974;28;20954;-70
2023/07/26 16:08:41;;;;;;;1.23;1.13;;;19.60;94.20;;;;;;4974286;28;20486;-69
2023/07/26 16:11:07;;;;;;;0.60;0.60;;;19.70;94.50;;;;;;4956911;28;20415;-70
2023/07/26 16:13:32;;;;;;;1.90;1.70;;;19.90;95.10;;;;;;4956401;28;20449;-70
2023/07/26 16:15:58;;;;;;;1.67;1.27;;;20.00;94.50;;;;;;4974112;28;20202;-69
2023/07/26 16:18:27;;;;;;;1.23;0.77;;;20.30;93.90;;;;;;4974282;28;20228;-70
2023/07/26 16:20:53;;;;;;;1.00;1.00;;;20.40;93.10;;;;;;4974245;28;20571;-69
2023/07/26 16:23:19;;;;;;;1.27;1.17;;;20.50;93.70;;;;;;4974415;28;20411;-69
2023/07/26 16:25:45;;;;;;;0.97;0.97;;;20.50;94.10;;;;;;4977234;28;20618;-69
2023/07/26 16:28:11;;;;;;;1.40;1.30;;;20.50;93.90;;;;;;4977895;28;20176;-67
2023/07/26 16:30:36;;;;;;;1.40;1.23;;;20.50;93.90;;;;;;4977874;28;20910;-73
2023/07/26 16:33:02;;;;;;;1.30;1.27;;;20.40;93.70;;;;;;4977884;28;20179;-69
2023/07/26 16:35:28;;;;;;;1.83;1.53;;;20.30;93.90;;;;;;4977412;28;20247;-68
2023/07/26 16:37:54;;;;;;;1.50;1.40;;;20.10;94.70;;;;;;4977701;28;20203;-68
2023/07/26 16:40:22;;;;;;;0.90;0.90;;;20.00;95.10;;;;;;4977847;28;20523;-70
2023/07/26 16:42:48;;;;;;;1.30;1.30;;;19.80;95.80;;;;;;4977709;28;20168;-69
2023/07/26 16:45:14;;;;;;;1.53;1.37;;;19.70;95.70;;;;;;4977058;28;20418;-68
2023/07/26 16:47:40;;;;;;;1.87;1.77;;;19.60;95.10;;;;;;4978055;28;20403;-67
2023/07/26 16:50:06;;;;;;;1.70;1.20;;;19.50;94.40;;;;;;4977225;28;20492;-68
2023/07/26 16:52:32;;;;;;;1.80;1.57;;;19.40;94.30;;;;;;4977496;28;20196;-69